Time;durP1;ratioP1;P1;durP2;ratioP2;P2;SDS_P1;SDS_P2;PMS_P1;PMS_P2;Temp;Humidity;BMP_temperature;BMP_pressure;BME280_temperature;BME280_humidity;BME280_pressure;Samples;Min_cycle;Max_cycle;Signal;HPM_P1;HPM_P2
2022/11/26 00:01:24;;;;;;;23.60;12.70;;;7.00;99.90;;;;;;4989864;28;20224;-70
2022/11/26 00:03:52;;;;;;;39.87;19.97;;;7.10;99.90;;;;;;4982124;28;20232;-70
2022/11/26 00:06:37;;;;;;;44.97;24.73;;;7.10;99.90;;;;;;5003254;28;20793;-71
2022/11/26 00:09:05;;;;;;;25.27;14.83;;;7.10;99.90;;;;;;5004186;28;20456;-70
2022/11/26 00:11:32;;;;;;;45.33;23.00;;;7.10;99.90;;;;;;5010039;28;20448;-72
2022/11/26 00:13:57;;;;;;;61.40;33.67;;;7.10;99.90;;;;;;4992700;28;20475;-71
2022/11/26 00:16:23;;;;;;;41.00;23.60;;;7.10;99.90;;;;;;5024259;28;20459;-70
2022/11/26 00:18:49;;;;;;;40.43;20.87;;;7.00;99.90;;;;;;5029348;28;20212;-71
2022/11/26 00:21:24;;;;;;;40.80;22.70;;;7.00;99.90;;;;;;5009778;28;20231;-70
2022/11/26 00:23:51;;;;;;;62.30;31.87;;;7.00;99.90;;;;;;5011295;28;20228;-70
2022/11/26 00:26:20;;;;;;;54.63;31.77;;;7.00;99.90;;;;;;5006319;28;20447;-71
2022/11/26 00:28:58;;;;;;;32.77;19.00;;;6.90;99.90;;;;;;5024431;28;21050;-71
2022/11/26 00:31:25;;;;;;;22.83;12.57;;;6.80;99.90;;;;;;5011196;28;20456;-70
2022/11/26 00:33:51;;;;;;;50.23;24.50;;;6.80;99.90;;;;;;5008035;28;20479;-71
2022/11/26 00:36:17;;;;;;;45.70;25.17;;;6.80;99.90;;;;;;5010909;28;20451;-71
2022/11/26 00:38:45;;;;;;;35.10;19.10;;;6.80;99.90;;;;;;5014150;28;20574;-71
2022/11/26 00:41:20;;;;;;;33.23;16.83;;;6.80;99.90;;;;;;4991079;28;20596;-71
2022/11/26 00:43:46;;;;;;;34.37;16.07;;;6.80;99.90;;;;;;5010899;28;20451;-71
2022/11/26 00:46:17;;;;;;;22.43;12.77;;;6.80;99.90;;;;;;4991647;28;21120;-69
2022/11/26 00:48:43;;;;;;;12.80;8.63;;;6.80;99.90;;;;;;5011466;28;20216;-72
2022/11/26 00:51:24;;;;;;;11.53;5.77;;;6.70;99.90;;;;;;5006765;28;20464;-71
2022/11/26 00:53:52;;;;;;;7.13;4.73;;;6.60;99.90;;;;;;4993859;28;20460;-71
2022/11/26 00:56:20;;;;;;;30.37;5.03;;;6.60;99.90;;;;;;4996933;28;20471;-71
2022/11/26 00:58:47;;;;;;;5.20;3.27;;;6.60;99.90;;;;;;5006416;28;21000;-71
2022/11/26 01:01:18;;;;;;;4.50;3.00;;;6.50;99.90;;;;;;5015006;28;20473;-72
2022/11/26 01:03:43;;;;;;;3.53;2.67;;;6.50;99.90;;;;;;5001302;28;20815;-71
2022/11/26 01:06:13;;;;;;;3.60;2.73;;;6.50;99.90;;;;;;5022169;28;20562;-71
2022/11/26 01:08:39;;;;;;;6.10;2.57;;;6.40;99.90;;;;;;4995534;28;20758;-72
2022/11/26 01:11:05;;;;;;;7.10;3.43;;;6.40;99.90;;;;;;4995423;28;20461;-69
2022/11/26 01:13:31;;;;;;;9.00;2.80;;;6.50;99.90;;;;;;5018988;28;20233;-71
2022/11/26 01:15:59;;;;;;;5.30;3.20;;;6.50;99.90;;;;;;5006429;28;20635;-71
2022/11/26 01:18:34;;;;;;;9.60;2.57;;;6.50;99.90;;;;;;5020128;28;20510;-70
2022/11/26 01:20:59;;;;;;;3.90;2.23;;;6.60;99.90;;;;;;5005864;28;20514;-71
2022/11/26 01:23:25;;;;;;;3.93;2.67;;;6.60;99.90;;;;;;4998914;28;20479;-70
2022/11/26 01:25:51;;;;;;;6.23;3.17;;;6.60;99.90;;;;;;4986523;28;20223;-71
2022/11/26 01:28:18;;;;;;;5.73;2.67;;;6.60;99.90;;;;;;4993727;28;20227;-70
2022/11/26 01:30:44;;;;;;;7.27;2.60;;;6.70;99.90;;;;;;5011813;28;20212;-71
2022/11/26 01:33:10;;;;;;;5.90;2.40;;;6.70;99.90;;;;;;5022839;28;20554;-70
2022/11/26 01:35:36;;;;;;;3.67;2.70;;;6.60;99.90;;;;;;5020673;28;20602;-71
2022/11/26 01:38:02;;;;;;;2.77;2.20;;;6.60;99.90;;;;;;5029285;28;20227;-72
2022/11/26 01:40:37;;;;;;;4.33;2.73;;;6.60;99.90;;;;;;5017494;28;20233;-71
2022/11/26 01:43:05;;;;;;;5.13;2.03;;;6.60;99.90;;;;;;5011322;28;20455;-71
2022/11/26 01:45:31;;;;;;;10.53;2.87;;;6.60;99.90;;;;;;4992026;28;20456;-71
2022/11/26 01:47:57;;;;;;;2.27;2.07;;;6.60;99.90;;;;;;5012110;28;20569;-71
2022/11/26 01:50:31;;;;;;;2.17;1.77;;;6.60;99.90;;;;;;5014353;28;20463;-71
2022/11/26 01:53:20;;;;;;;3.47;2.60;;;6.60;99.90;;;;;;5024207;28;20335;-71
2022/11/26 01:55:51;;;;;;;8.33;2.67;;;6.60;99.90;;;;;;4997794;28;20482;-71
2022/11/26 01:58:25;;;;;;;9.53;2.60;;;6.60;99.90;;;;;;5008211;28;20443;-70
2022/11/26 02:00:51;;;;;;;3.03;2.00;;;6.60;99.90;;;;;;5011600;28;20501;-71
2022/11/26 02:03:22;;;;;;;6.33;2.30;;;6.60;99.90;;;;;;5014373;28;20459;-70
2022/11/26 02:06:01;;;;;;;4.07;2.40;;;6.60;99.90;;;;;;5021922;28;20451;-71
2022/11/26 02:08:30;;;;;;;3.37;2.17;;;6.60;99.90;;;;;;4994860;28;20502;-71
2022/11/26 02:10:55;;;;;;;3.13;2.20;;;6.70;99.90;;;;;;5013532;28;20476;-71
2022/11/26 02:13:22;;;;;;;5.13;3.13;;;6.60;99.90;;;;;;5013050;28;20988;-71
2022/11/26 02:16:07;;;;;;;6.03;3.30;;;6.60;99.90;;;;;;5021649;28;20225;-71
2022/11/26 02:18:38;;;;;;;3.23;2.20;;;6.60;99.90;;;;;;5027801;28;20503;-70
2022/11/26 02:21:22;;;;;;;10.00;2.53;;;6.60;99.90;;;;;;5026137;28;20542;-71
2022/11/26 02:23:58;;;;;;;6.00;3.43;;;6.60;99.90;;;;;;4994156;28;20857;-71
2022/11/26 02:26:42;;;;;;;7.97;2.90;;;6.70;99.90;;;;;;5012621;28;20459;-71
2022/11/26 02:29:49;;;;;;;2.30;2.10;;;6.60;99.90;;;;;;5013566;28;20455;-72
2022/11/26 02:32:26;;;;;;;3.30;2.07;;;6.60;99.90;;;;;;4924970;29;20463;-71
2022/11/26 02:35:05;;;;;;;3.83;2.13;;;6.50;99.90;;;;;;5011859;28;20482;-72
2022/11/26 02:37:38;;;;;;;6.20;2.47;;;6.50;99.90;;;;;;5002122;28;20478;-71
2022/11/26 02:40:06;;;;;;;6.30;2.57;;;6.30;99.90;;;;;;5031685;28;20897;-71
2022/11/26 02:42:34;;;;;;;2.67;2.30;;;6.30;99.90;;;;;;5014214;28;20812;-71
2022/11/26 02:45:16;;;;;;;5.63;2.30;;;6.30;99.90;;;;;;5031769;28;20541;-71
2022/11/26 02:47:44;;;;;;;2.70;2.33;;;6.30;99.90;;;;;;5010982;28;20501;-71
2022/11/26 02:50:21;;;;;;;6.83;3.40;;;6.20;99.90;;;;;;5026857;28;20473;-71
2022/11/26 02:52:49;;;;;;;4.73;2.40;;;6.20;99.90;;;;;;5009597;28;20473;-71
2022/11/26 02:55:18;;;;;;;4.30;2.87;;;6.20;99.90;;;;;;4995646;28;20455;-70
2022/11/26 02:57:48;;;;;;;9.20;3.30;;;6.10;99.90;;;;;;5013676;28;20478;-71
2022/11/26 03:00:15;;;;;;;6.37;2.80;;;6.00;99.90;;;;;;5012079;28;20467;-71
2022/11/26 03:03:22;;;;;;;2.40;2.20;;;6.10;99.90;;;;;;5011160;28;20510;-70
2022/11/26 03:05:57;;;;;;;6.10;3.20;;;6.10;99.90;;;;;;4931934;29;20991;-71
2022/11/26 03:08:25;;;;;;;4.60;3.00;;;6.10;99.90;;;;;;4930653;29;20467;-71
2022/11/26 03:10:50;;;;;;;5.83;2.40;;;6.10;99.90;;;;;;4979954;28;20830;-71
2022/11/26 03:13:16;;;;;;;3.67;2.57;;;6.10;99.90;;;;;;5009323;28;20462;-71
2022/11/26 03:15:42;;;;;;;5.50;2.60;;;6.10;99.90;;;;;;5018189;28;20300;-70
2022/11/26 03:18:08;;;;;;;6.93;3.30;;;6.20;99.90;;;;;;5008952;28;20239;-71
2022/11/26 03:20:33;;;;;;;11.87;3.10;;;6.20;99.90;;;;;;4994514;28;20229;-70
2022/11/26 03:22:59;;;;;;;7.80;3.10;;;6.20;99.90;;;;;;5008272;28;20304;-71
2022/11/26 03:25:25;;;;;;;3.27;2.60;;;6.30;99.90;;;;;;5012661;28;20598;-70
2022/11/26 03:27:51;;;;;;;13.50;3.80;;;6.30;99.90;;;;;;5012209;28;20208;-70
2022/11/26 03:30:16;;;;;;;5.50;3.60;;;6.30;99.90;;;;;;5012613;28;20210;-71
2022/11/26 03:32:42;;;;;;;5.33;3.03;;;6.30;99.90;;;;;;4993237;28;20221;-71
2022/11/26 03:35:08;;;;;;;6.67;2.90;;;6.30;99.90;;;;;;5012631;28;20212;-70
2022/11/26 03:37:34;;;;;;;8.07;3.20;;;6.30;99.90;;;;;;4996698;28;20216;-71
2022/11/26 03:39:59;;;;;;;7.00;2.90;;;6.30;99.90;;;;;;5013164;28;20460;-71
2022/11/26 03:42:25;;;;;;;3.83;3.10;;;6.30;99.90;;;;;;4996448;28;20239;-71
2022/11/26 03:44:51;;;;;;;5.90;2.70;;;6.30;99.90;;;;;;4996231;28;20213;-71
2022/11/26 03:47:17;;;;;;;3.10;2.63;;;6.40;99.90;;;;;;5012292;28;20216;-70
2022/11/26 03:49:42;;;;;;;3.23;2.87;;;6.30;99.90;;;;;;5023629;28;20223;-71
2022/11/26 03:52:08;;;;;;;6.07;3.40;;;6.30;99.90;;;;;;4996161;28;20212;-70
2022/11/26 03:54:34;;;;;;;2.90;2.60;;;6.30;99.90;;;;;;4996432;28;20216;-71
2022/11/26 03:56:59;;;;;;;4.07;2.97;;;6.30;99.90;;;;;;4994540;28;20228;-71
2022/11/26 03:59:25;;;;;;;8.00;2.70;;;6.30;99.90;;;;;;5031060;28;20248;-70
2022/11/26 04:01:50;;;;;;;5.37;2.47;;;6.30;99.90;;;;;;5007168;28;20240;-71
2022/11/26 04:04:16;;;;;;;11.50;3.07;;;6.30;99.90;;;;;;5031095;28;20212;-70
2022/11/26 04:06:42;;;;;;;3.00;2.43;;;6.30;99.90;;;;;;4993659;28;20225;-71
2022/11/26 04:09:07;;;;;;;4.73;3.27;;;6.30;99.90;;;;;;5002676;28;20221;-72
2022/11/26 04:11:33;;;;;;;9.27;3.90;;;6.20;99.90;;;;;;5009105;28;20221;-71
2022/11/26 04:13:59;;;;;;;5.90;3.73;;;6.20;99.90;;;;;;5032475;28;20224;-71
2022/11/26 04:16:25;;;;;;;7.60;4.07;;;6.20;99.90;;;;;;5017537;28;20216;-70
2022/11/26 04:18:50;;;;;;;5.33;4.93;;;6.20;99.90;;;;;;5025532;28;20299;-71
2022/11/26 04:21:16;;;;;;;5.23;4.80;;;6.10;99.90;;;;;;5029272;28;20228;-71
2022/11/26 04:23:42;;;;;;;5.93;3.87;;;6.10;99.90;;;;;;5017451;28;20212;-71
2022/11/26 04:26:07;;;;;;;7.80;4.80;;;6.10;99.90;;;;;;4991348;28;20220;-71
2022/11/26 04:28:33;;;;;;;8.07;3.53;;;6.00;99.90;;;;;;5016981;28;20259;-70
2022/11/26 04:30:58;;;;;;;8.20;4.30;;;6.00;99.90;;;;;;5008054;28;20244;-71
2022/11/26 04:33:27;;;;;;;3.60;3.17;;;6.00;99.90;;;;;;5029782;28;20229;-71
2022/11/26 04:35:53;;;;;;;2.60;2.40;;;6.00;99.90;;;;;;5012871;28;20299;-71
2022/11/26 04:38:19;;;;;;;5.77;2.83;;;6.00;99.90;;;;;;4992550;28;20536;-71
2022/11/26 04:40:46;;;;;;;10.47;3.40;;;5.90;99.90;;;;;;5019774;28;20519;-71
2022/11/26 04:43:12;;;;;;;3.73;2.97;;;6.00;99.90;;;;;;4993175;28;20217;-71
2022/11/26 04:45:37;;;;;;;4.47;2.60;;;6.00;99.90;;;;;;5016620;28;21009;-71
2022/11/26 04:48:03;;;;;;;8.50;2.10;;;6.00;99.90;;;;;;4993542;28;20220;-71
2022/11/26 04:50:29;;;;;;;5.90;2.47;;;6.00;99.90;;;;;;5011832;28;20223;-71
2022/11/26 04:52:55;;;;;;;6.13;2.47;;;6.00;99.90;;;;;;5029416;28;20467;-71
2022/11/26 04:55:20;;;;;;;6.53;2.40;;;6.10;99.90;;;;;;5008704;28;20307;-70
2022/11/26 04:57:49;;;;;;;5.37;2.13;;;6.00;99.90;;;;;;4994073;28;20299;-71
2022/11/26 05:00:16;;;;;;;3.60;2.27;;;6.00;99.90;;;;;;4984765;28;20221;-70
2022/11/26 05:02:42;;;;;;;3.97;2.77;;;6.00;99.90;;;;;;5005468;28;20518;-71
2022/11/26 05:05:08;;;;;;;2.77;1.93;;;6.00;99.90;;;;;;4995811;28;20448;-71
2022/11/26 05:07:34;;;;;;;2.33;2.00;;;6.00;99.90;;;;;;4994806;28;20220;-70
2022/11/26 05:09:59;;;;;;;4.00;2.43;;;6.00;99.90;;;;;;5011357;28;20466;-71
2022/11/26 05:12:25;;;;;;;6.20;1.90;;;6.00;99.90;;;;;;5026333;28;20222;-71
2022/11/26 05:14:51;;;;;;;2.33;2.13;;;5.90;99.90;;;;;;5007921;28;20219;-71
2022/11/26 05:17:16;;;;;;;3.67;2.17;;;5.80;99.90;;;;;;4988478;28;20240;-69
2022/11/26 05:19:42;;;;;;;4.60;2.20;;;5.70;99.90;;;;;;4992272;28;20248;-71
2022/11/26 05:22:08;;;;;;;6.00;2.37;;;5.60;99.90;;;;;;5010936;28;20236;-69
2022/11/26 05:24:33;;;;;;;9.67;3.20;;;5.60;99.90;;;;;;5012634;28;20228;-70
2022/11/26 05:26:59;;;;;;;5.20;2.60;;;5.50;99.90;;;;;;5012498;28;20217;-71
2022/11/26 05:29:25;;;;;;;4.07;1.87;;;5.50;99.90;;;;;;5014734;28;20588;-70
2022/11/26 05:31:51;;;;;;;2.70;2.03;;;5.60;99.90;;;;;;4990519;28;20238;-70
2022/11/26 05:34:17;;;;;;;2.80;2.30;;;5.60;99.90;;;;;;5032950;28;20307;-71
2022/11/26 05:36:43;;;;;;;2.67;2.47;;;5.60;99.90;;;;;;4999372;28;20519;-70
2022/11/26 05:39:08;;;;;;;4.13;2.30;;;5.70;99.90;;;;;;5014353;28;20635;-71
2022/11/26 05:41:34;;;;;;;3.60;2.30;;;5.70;99.90;;;;;;5013678;28;20235;-70
2022/11/26 05:44:00;;;;;;;6.80;3.03;;;5.60;99.90;;;;;;5013979;28;20221;-70
2022/11/26 05:46:26;;;;;;;3.77;1.90;;;5.60;99.90;;;;;;5009134;28;20309;-70
2022/11/26 05:48:51;;;;;;;2.10;1.90;;;5.40;99.90;;;;;;5011260;28;20224;-71
2022/11/26 05:51:17;;;;;;;2.40;2.10;;;5.30;99.90;;;;;;4995349;28;20494;-70
2022/11/26 05:53:43;;;;;;;3.00;1.73;;;5.30;99.90;;;;;;4996998;28;20274;-71
2022/11/26 05:56:08;;;;;;;10.20;2.30;;;5.40;99.90;;;;;;5023993;28;20251;-71
2022/11/26 05:58:34;;;;;;;4.67;2.43;;;5.50;99.90;;;;;;5015019;28;20278;-70
2022/11/26 06:01:00;;;;;;;5.73;2.77;;;5.50;99.90;;;;;;5026446;28;20252;-71
2022/11/26 06:03:26;;;;;;;6.67;2.80;;;5.50;99.90;;;;;;4994856;28;20229;-71
2022/11/26 06:05:51;;;;;;;6.37;2.87;;;5.50;99.90;;;;;;5014881;28;20224;-71
2022/11/26 06:08:17;;;;;;;9.10;2.60;;;5.60;99.90;;;;;;5011380;28;20227;-70
2022/11/26 06:10:44;;;;;;;4.00;2.90;;;5.60;99.90;;;;;;4995118;28;20232;-70
2022/11/26 06:13:09;;;;;;;10.50;3.00;;;5.60;99.90;;;;;;5016506;28;20236;-68
2022/11/26 06:15:35;;;;;;;2.97;2.30;;;5.60;99.90;;;;;;4998394;28;20458;-71
2022/11/26 06:18:00;;;;;;;7.20;2.47;;;5.60;99.90;;;;;;5014962;28;20221;-70
2022/11/26 06:20:26;;;;;;;9.57;3.07;;;5.60;99.90;;;;;;5031296;28;20228;-70
2022/11/26 06:22:52;;;;;;;4.90;2.70;;;5.60;99.90;;;;;;5030646;28;20236;-70
2022/11/26 06:25:17;;;;;;;4.30;3.03;;;5.70;99.90;;;;;;5025464;28;20248;-71
2022/11/26 06:27:43;;;;;;;5.00;3.43;;;5.70;99.90;;;;;;4999971;28;20212;-69
2022/11/26 06:30:12;;;;;;;3.33;2.60;;;5.70;99.90;;;;;;4989506;28;20217;-70
2022/11/26 06:32:38;;;;;;;4.50;2.70;;;5.60;99.90;;;;;;5009365;28;20260;-71
2022/11/26 06:35:04;;;;;;;4.23;2.63;;;5.60;99.90;;;;;;5013851;28;20487;-70
2022/11/26 06:37:31;;;;;;;4.23;2.40;;;5.60;99.90;;;;;;5014244;28;20224;-71
2022/11/26 06:39:57;;;;;;;10.13;3.17;;;5.60;99.90;;;;;;5013529;28;20447;-70
2022/11/26 06:42:22;;;;;;;3.40;2.77;;;5.70;99.90;;;;;;4998069;28;20543;-71
2022/11/26 06:44:48;;;;;;;3.87;2.77;;;5.70;99.90;;;;;;5012259;28;20227;-70
2022/11/26 06:47:14;;;;;;;8.20;3.33;;;5.70;99.90;;;;;;5031101;28;20216;-71
2022/11/26 06:49:40;;;;;;;5.40;3.47;;;5.70;99.90;;;;;;5014051;28;20216;-70
2022/11/26 06:52:06;;;;;;;7.47;5.00;;;5.60;99.90;;;;;;4994938;28;20978;-71
2022/11/26 06:54:32;;;;;;;7.63;4.70;;;5.60;99.90;;;;;;5003396;28;20641;-71
2022/11/26 06:56:58;;;;;;;5.00;3.23;;;5.60;99.90;;;;;;5011459;28;20991;-70
2022/11/26 06:59:24;;;;;;;3.53;2.67;;;5.60;99.90;;;;;;5021225;28;20459;-71
2022/11/26 07:01:50;;;;;;;4.97;2.93;;;5.50;99.90;;;;;;5013300;28;20258;-70
2022/11/26 07:04:16;;;;;;;4.40;2.30;;;5.50;99.90;;;;;;4996904;28;20265;-71
2022/11/26 07:06:44;;;;;;;4.70;2.63;;;5.40;99.90;;;;;;5008798;28;20471;-70
2022/11/26 07:09:10;;;;;;;4.00;2.57;;;5.40;99.90;;;;;;5005935;28;20593;-71
2022/11/26 07:11:37;;;;;;;4.60;2.73;;;5.40;99.90;;;;;;5010477;28;20550;-71
2022/11/26 07:14:03;;;;;;;7.20;2.40;;;5.30;99.90;;;;;;4991859;28;20593;-70
2022/11/26 07:16:29;;;;;;;7.80;2.73;;;5.20;99.90;;;;;;5009723;28;20443;-69
2022/11/26 07:18:57;;;;;;;4.57;2.23;;;5.20;99.90;;;;;;5010198;28;20467;-71
2022/11/26 07:21:23;;;;;;;3.80;1.97;;;5.30;99.90;;;;;;4996971;28;20399;-71
2022/11/26 07:23:49;;;;;;;2.53;2.33;;;5.40;99.90;;;;;;4988140;28;20445;-71
2022/11/26 07:26:17;;;;;;;4.40;2.60;;;5.50;99.90;;;;;;5012963;28;20550;-68
2022/11/26 07:28:43;;;;;;;13.43;6.70;;;5.50;99.90;;;;;;4996192;28;20985;-70
2022/11/26 07:31:15;;;;;;;22.67;10.90;;;5.50;99.90;;;;;;4996380;28;21017;-70
2022/11/26 07:33:41;;;;;;;11.67;7.20;;;5.50;99.90;;;;;;5027809;28;20974;-70
2022/11/26 07:36:13;;;;;;;5.83;4.40;;;5.50;99.90;;;;;;5009582;28;20449;-71
2022/11/26 07:38:38;;;;;;;6.53;4.67;;;5.50;99.90;;;;;;5011513;28;20458;-71
2022/11/26 07:41:07;;;;;;;8.10;5.30;;;5.50;99.90;;;;;;5013254;28;20475;-70
2022/11/26 07:43:37;;;;;;;15.67;5.10;;;5.50;99.90;;;;;;5012977;28;20311;-71
2022/11/26 07:46:05;;;;;;;12.33;5.10;;;5.50;99.90;;;;;;4993035;28;20479;-69
2022/11/26 07:48:32;;;;;;;7.67;4.57;;;5.40;99.90;;;;;;5006426;28;20471;-71
2022/11/26 07:50:59;;;;;;;7.63;5.23;;;5.40;99.90;;;;;;4996840;28;20455;-71
2022/11/26 07:53:28;;;;;;;5.93;4.50;;;5.50;99.90;;;;;;5006524;28;20463;-69
2022/11/26 07:55:53;;;;;;;7.13;4.20;;;5.50;99.90;;;;;;5024653;28;20452;-70
2022/11/26 07:58:19;;;;;;;6.33;3.93;;;5.50;99.90;;;;;;4990010;28;20555;-69
2022/11/26 08:00:45;;;;;;;6.67;3.50;;;5.50;99.90;;;;;;5009122;28;20246;-72
2022/11/26 08:03:10;;;;;;;10.50;5.10;;;5.50;99.90;;;;;;4984994;28;20302;-69
2022/11/26 08:05:41;;;;;;;10.70;4.50;;;5.60;99.90;;;;;;5005989;28;20220;-71
2022/11/26 08:08:07;;;;;;;3.47;3.17;;;5.60;99.90;;;;;;5009778;28;20713;-71
2022/11/26 08:10:32;;;;;;;8.33;3.77;;;5.50;99.90;;;;;;5030138;28;20459;-70
2022/11/26 08:12:58;;;;;;;4.63;3.20;;;5.60;99.90;;;;;;5030185;28;20282;-71
2022/11/26 08:15:24;;;;;;;4.40;3.50;;;5.60;99.90;;;;;;5029203;28;20288;-70
2022/11/26 08:17:54;;;;;;;4.13;3.67;;;5.60;99.90;;;;;;5004093;28;20727;-72
2022/11/26 08:20:20;;;;;;;6.70;3.00;;;5.60;99.90;;;;;;4998190;28;20225;-70
2022/11/26 08:22:45;;;;;;;8.90;4.00;;;5.70;99.90;;;;;;4992414;28;20460;-71
2022/11/26 08:25:11;;;;;;;3.37;3.07;;;5.70;99.90;;;;;;5000000;28;20205;-71
2022/11/26 08:27:37;;;;;;;3.70;2.90;;;5.80;99.90;;;;;;5008094;28;20212;-71
2022/11/26 08:30:04;;;;;;;5.17;3.60;;;5.90;99.90;;;;;;5023454;28;20209;-70
2022/11/26 08:32:29;;;;;;;6.20;4.27;;;5.90;99.90;;;;;;4993577;28;20711;-71
2022/11/26 08:34:55;;;;;;;6.23;3.57;;;6.00;99.90;;;;;;4992666;28;20455;-71
2022/11/26 08:37:21;;;;;;;10.53;5.57;;;6.00;99.90;;;;;;5011009;28;20227;-71
2022/11/26 08:39:46;;;;;;;6.90;5.80;;;6.00;99.90;;;;;;4992851;28;20216;-71
2022/11/26 08:42:12;;;;;;;7.63;4.70;;;6.00;99.90;;;;;;4987945;28;20226;-71
2022/11/26 08:44:38;;;;;;;7.17;5.07;;;6.00;99.90;;;;;;5008196;28;20295;-71
2022/11/26 08:47:03;;;;;;;7.27;4.33;;;6.10;99.90;;;;;;5010660;28;20308;-71
2022/11/26 08:49:29;;;;;;;10.37;5.43;;;6.10;99.90;;;;;;5007618;28;20252;-71
2022/11/26 08:51:55;;;;;;;6.60;4.43;;;6.20;99.90;;;;;;5006543;28;20233;-71
2022/11/26 08:54:22;;;;;;;6.17;3.70;;;6.20;99.90;;;;;;4992003;28;20219;-71
2022/11/26 08:56:47;;;;;;;8.20;4.30;;;6.20;99.90;;;;;;5006031;28;20998;-71
2022/11/26 08:59:13;;;;;;;7.77;5.07;;;6.20;99.90;;;;;;5027041;28;20463;-71
2022/11/26 09:01:39;;;;;;;7.67;4.50;;;6.30;99.90;;;;;;5013227;28;20224;-71
2022/11/26 09:04:05;;;;;;;7.20;4.50;;;6.30;99.90;;;;;;5011768;28;20299;-71
2022/11/26 09:06:32;;;;;;;4.70;3.67;;;6.30;99.90;;;;;;4996304;28;20221;-71
2022/11/26 09:09:11;;;;;;;6.83;3.40;;;6.40;99.90;;;;;;5006675;28;20494;-71
2022/11/26 09:11:48;;;;;;;37.90;22.80;;;6.40;99.90;;;;;;4995924;28;20482;-72
2022/11/26 09:14:17;;;;;;;28.73;21.33;;;6.40;99.90;;;;;;4991818;28;20880;-70
2022/11/26 09:16:43;;;;;;;21.30;15.80;;;6.40;99.90;;;;;;5015288;28;20792;-71
2022/11/26 09:19:11;;;;;;;18.63;13.10;;;6.40;99.90;;;;;;5012075;28;20443;-71
2022/11/26 09:21:37;;;;;;;16.43;9.40;;;6.40;99.90;;;;;;5029135;28;20529;-71
2022/11/26 09:24:03;;;;;;;12.43;8.10;;;6.50;99.90;;;;;;4983791;28;20454;-71
2022/11/26 09:26:32;;;;;;;24.87;21.67;;;6.50;99.90;;;;;;4996854;28;20219;-71
2022/11/26 09:28:58;;;;;;;14.73;13.20;;;6.40;99.90;;;;;;5013981;28;20843;-71
2022/11/26 09:31:24;;;;;;;8.47;7.53;;;6.40;99.90;;;;;;5022907;28;20464;-71
2022/11/26 09:33:50;;;;;;;6.07;5.57;;;6.40;99.90;;;;;;5015346;28;20762;-71
2022/11/26 09:36:17;;;;;;;4.97;4.40;;;6.40;99.90;;;;;;4996660;28;20500;-68
2022/11/26 09:38:43;;;;;;;4.40;4.00;;;6.40;99.90;;;;;;5014298;28;20299;-71
2022/11/26 09:41:21;;;;;;;25.87;13.00;;;6.20;99.90;;;;;;5009966;28;20460;-71
2022/11/26 09:44:08;;;;;;;38.47;16.83;;;6.00;99.90;;;;;;5004438;28;20444;-72
2022/11/26 09:46:55;;;;;;;31.80;15.17;;;6.10;99.90;;;;;;5013402;28;20475;-71
2022/11/26 09:49:22;;;;;;;23.63;12.07;;;6.30;99.90;;;;;;5025586;28;20479;-71
2022/11/26 09:51:52;;;;;;;13.73;7.20;;;6.40;99.90;;;;;;5011275;28;20489;-71
2022/11/26 09:54:21;;;;;;;38.80;19.53;;;6.40;99.90;;;;;;5012367;28;20452;-71
2022/11/26 09:56:51;;;;;;;40.47;21.90;;;6.40;99.90;;;;;;4998323;28;20459;-73
2022/11/26 09:59:20;;;;;;;19.83;11.50;;;6.40;99.90;;;;;;5014478;28;20458;-71
2022/11/26 10:01:46;;;;;;;22.70;11.67;;;6.30;99.90;;;;;;4998177;28;20471;-71
2022/11/26 10:04:23;;;;;;;45.33;23.17;;;6.40;99.90;;;;;;5014262;28;20462;-69
2022/11/26 10:07:25;;;;;;;38.00;18.90;;;6.40;99.90;;;;;;4999615;28;20236;-71
2022/11/26 10:10:16;;;;;;;39.23;18.30;;;6.40;99.90;;;;;;5030109;28;20459;-71
2022/11/26 10:13:06;;;;;;;28.57;15.70;;;6.50;99.90;;;;;;5024537;28;20487;-71
2022/11/26 10:16:09;;;;;;;20.27;12.60;;;6.40;99.90;;;;;;5030636;28;20463;-70
2022/11/26 10:19:10;;;;;;;41.97;23.60;;;6.50;99.90;;;;;;5006826;28;20502;-72
2022/11/26 10:21:41;;;;;;;76.17;37.60;;;6.50;99.90;;;;;;5012908;28;20471;-70
2022/11/26 10:24:19;;;;;;;40.30;22.20;;;6.50;99.90;;;;;;5011889;28;20448;-71
2022/11/26 10:26:47;;;;;;;31.43;19.17;;;6.50;99.90;;;;;;5010713;28;20464;-71
2022/11/26 10:29:38;;;;;;;37.83;22.87;;;6.60;99.90;;;;;;5005693;28;20494;-72
2022/11/26 10:32:23;;;;;;;29.90;17.13;;;6.70;99.90;;;;;;4986490;28;20511;-70
2022/11/26 10:34:50;;;;;;;21.87;12.97;;;6.80;99.90;;;;;;5013926;28;20955;-71
2022/11/26 10:37:18;;;;;;;15.60;8.17;;;6.80;99.90;;;;;;5014108;28;20466;-71
2022/11/26 10:39:44;;;;;;;10.10;6.47;;;6.80;99.90;;;;;;5009932;28;20479;-72
2022/11/26 10:42:16;;;;;;;15.23;7.33;;;6.90;99.90;;;;;;5008106;28;20541;-70
2022/11/26 10:44:43;;;;;;;12.80;5.90;;;6.90;99.90;;;;;;5013109;28;20241;-71
2022/11/26 10:47:25;;;;;;;12.30;4.60;;;6.90;99.90;;;;;;5013010;28;20538;-72
2022/11/26 10:50:13;;;;;;;6.00;3.80;;;7.00;99.90;;;;;;4998880;28;20458;-72
2022/11/26 10:52:39;;;;;;;5.80;3.67;;;7.00;99.90;;;;;;4994408;28;20460;-71
2022/11/26 10:55:22;;;;;;;11.23;3.50;;;7.00;99.90;;;;;;5021331;28;20478;-71
2022/11/26 10:57:55;;;;;;;4.77;3.40;;;7.00;99.90;;;;;;5021610;28;20693;-71
2022/11/26 11:00:27;;;;;;;5.97;3.20;;;7.00;99.90;;;;;;5024850;28;20467;-70
2022/11/26 11:02:53;;;;;;;10.13;3.77;;;7.00;99.90;;;;;;4995949;28;20463;-71
2022/11/26 11:05:20;;;;;;;5.23;3.00;;;7.10;99.90;;;;;;5013252;28;20474;-71
2022/11/26 11:07:46;;;;;;;5.30;3.33;;;7.10;99.90;;;;;;4994804;28;20453;-71
2022/11/26 11:10:12;;;;;;;10.13;3.53;;;7.10;99.90;;;;;;5026426;28;20456;-71
2022/11/26 11:12:42;;;;;;;3.30;3.00;;;7.10;99.90;;;;;;5002091;28;20451;-71
2022/11/26 11:15:17;;;;;;;7.70;3.40;;;7.20;99.90;;;;;;4989750;28;20213;-72
2022/11/26 11:17:43;;;;;;;4.20;3.30;;;7.20;99.90;;;;;;5023764;28;20446;-71
2022/11/26 11:20:15;;;;;;;5.43;3.40;;;7.30;99.90;;;;;;4995498;28;20447;-71
2022/11/26 11:22:43;;;;;;;24.07;13.37;;;7.30;99.90;;;;;;5009715;28;20427;-72
2022/11/26 11:25:23;;;;;;;11.93;8.20;;;7.20;99.90;;;;;;5010752;28;20657;-71
2022/11/26 11:27:49;;;;;;;8.83;4.93;;;7.20;99.90;;;;;;5012622;28;20517;-72
2022/11/26 11:30:31;;;;;;;7.07;4.77;;;7.20;99.90;;;;;;5012568;28;20448;-71
2022/11/26 11:33:19;;;;;;;11.33;6.07;;;7.20;99.90;;;;;;5022274;28;20544;-71
2022/11/26 11:36:15;;;;;;;5.90;4.40;;;7.20;99.90;;;;;;5009816;28;20793;-71
2022/11/26 11:38:51;;;;;;;5.40;3.93;;;7.20;99.90;;;;;;5008411;28;20467;-70
2022/11/26 11:41:31;;;;;;;6.53;5.03;;;7.20;99.90;;;;;;5006333;28;20460;-72
2022/11/26 11:44:04;;;;;;;7.53;4.40;;;7.20;99.90;;;;;;5012627;28;20490;-71
2022/11/26 11:46:45;;;;;;;4.43;4.03;;;7.30;99.90;;;;;;4993407;28;20455;-71
2022/11/26 11:49:39;;;;;;;10.37;4.17;;;7.30;99.90;;;;;;4995050;28;20551;-71
2022/11/26 11:52:56;;;;;;;3.90;3.17;;;7.30;99.90;;;;;;4994034;28;20464;-71
2022/11/26 11:55:48;;;;;;;8.37;3.70;;;7.20;99.90;;;;;;4981405;28;20462;-72
2022/11/26 11:58:51;;;;;;;24.00;11.97;;;7.10;99.90;;;;;;5025871;28;20455;-71
2022/11/26 12:01:29;;;;;;;21.80;11.13;;;7.10;99.90;;;;;;4992592;28;20980;-71
2022/11/26 12:04:06;;;;;;;19.40;9.43;;;7.10;99.90;;;;;;5009372;28;20483;-71
2022/11/26 12:06:51;;;;;;;10.83;6.90;;;7.10;99.90;;;;;;5007895;28;20452;-71
2022/11/26 12:09:46;;;;;;;9.33;5.93;;;7.10;99.90;;;;;;5019958;28;20460;-71
2022/11/26 12:12:23;;;;;;;6.10;5.30;;;7.00;99.90;;;;;;4991851;28;20460;-71
2022/11/26 12:14:51;;;;;;;8.43;5.00;;;7.10;99.90;;;;;;5009440;28;20509;-71
2022/11/26 12:17:29;;;;;;;8.33;5.60;;;7.00;99.90;;;;;;5018883;28;20464;-72
2022/11/26 12:20:27;;;;;;;37.67;16.97;;;7.00;99.90;;;;;;5022938;28;20474;-71
2022/11/26 12:23:12;;;;;;;54.30;25.00;;;7.00;99.90;;;;;;5006436;28;20548;-71
2022/11/26 12:25:39;;;;;;;48.63;26.07;;;7.10;99.90;;;;;;5004681;28;20901;-72
2022/11/26 12:28:25;;;;;;;65.03;29.93;;;7.10;99.90;;;;;;5004645;28;20810;-70
2022/11/26 12:30:52;;;;;;;61.50;31.83;;;7.10;99.90;;;;;;4988070;28;20449;-71
2022/11/26 12:33:28;;;;;;;69.40;31.77;;;7.10;99.90;;;;;;5004166;28;20870;-71
2022/11/26 12:35:57;;;;;;;97.67;41.90;;;7.10;99.90;;;;;;5004622;28;20440;-71
2022/11/26 12:38:28;;;;;;;78.83;35.30;;;7.10;99.90;;;;;;4972600;28;20495;-70
2022/11/26 12:41:13;;;;;;;61.33;27.63;;;7.00;99.90;;;;;;5004253;28;20471;-70
2022/11/26 12:44:12;;;;;;;47.43;20.60;;;7.10;99.90;;;;;;5011784;28;20565;-69
2022/11/26 12:46:38;;;;;;;35.03;16.77;;;7.10;99.90;;;;;;5037100;28;21080;-70
2022/11/26 12:49:30;;;;;;;27.90;14.00;;;7.20;99.90;;;;;;4985546;28;20546;-69
2022/11/26 12:52:02;;;;;;;25.30;12.37;;;7.20;99.90;;;;;;4996522;28;20248;-69
2022/11/26 12:54:37;;;;;;;24.67;11.67;;;7.20;99.90;;;;;;4987250;28;20459;-69
2022/11/26 12:57:38;;;;;;;24.80;11.90;;;7.10;99.90;;;;;;5009261;28;20458;-67
2022/11/26 13:00:05;;;;;;;15.17;7.93;;;7.10;99.90;;;;;;5029082;28;20546;-69
2022/11/26 13:02:35;;;;;;;10.90;5.97;;;7.10;99.90;;;;;;5010954;28;20455;-69
2022/11/26 13:05:02;;;;;;;5.17;4.30;;;7.10;99.90;;;;;;5010484;28;20978;-69
2022/11/26 13:07:53;;;;;;;4.10;3.00;;;7.10;99.90;;;;;;4993043;28;20836;-70